KLFK

Angelina County Airport

Lufkin, Texas, USA
KLFK 261140Z 2612/2712 29003KT P6SM SKC FM261400 31007KT P6SM SKC FM261800 31006KT P6SM SCT040 FM270000 34004KT P6SM SCT045 SCT150 SCT250 FM270300 00000KT P6SM BKN250
Issued Valid From Valid To
Apr-26 @ 11:40 UTC
(2 hours ago)
Apr-26 @ 12:00 UTC
(2 hours ago)
Apr-27 @ 12:00 UTC
(in 22 hours)
Apr-26 @ 12:00 to Apr-26 @ 14:00
KLFK 261140Z 2612/2712 29003KT P6SM SKC
Wind Visibility Clouds
290° at 3 knots Greater than 6 miles
  • Clear skies
From Apr-26 @ 14:00 to Apr-26 @ 18:00
FM261400 31007KT P6SM SKC
Wind Visibility Clouds
310° at 7 knots Greater than 6 miles
  • Clear skies
From Apr-26 @ 18:00 to Apr-27 @ 00:00
FM261800 31006KT P6SM SCT040
Wind Visibility Clouds
310° at 6 knots Greater than 6 miles
  • Scattered at 4,000' AGL
From Apr-27 @ 00:00 to Apr-27 @ 03:00
FM270000 34004KT P6SM SCT045 SCT150 SCT250
Wind Visibility Clouds
340° at 4 knots Greater than 6 miles
  • Scattered at 4,500' AGL
  • Scattered at 15,000' AGL
  • Scattered at 25,000' AGL
From Apr-27 @ 03:00 to Apr-27 @ 12:00
FM270300 00000KT P6SM BKN250
Visibility Clouds
Greater than 6 miles
  • Broken at 25,000' AGL
KLFK 261140Z 2612/2712 29003KT P6SM SKC FM261400 31007KT P6SM SKC FM261800 31006KT P6SM SCT040 FM270000 34004KT P6SM SCT045 SCT150 SCT250 FM270300 00000KT P6SM BKN250
Issued Apr-26 @ 11:40 UTC
(2 hours ago)
Valid From Apr-26 @ 12:00 UTC
(2 hours ago)
Valid To Apr-27 @ 12:00 UTC
(in 22 hours)
Apr-26 @ 12:00 - Apr-26 @ 14:00
Wind Visibility
290° at 3 knots Greater than 6 miles
Clouds
  • Clear skies
From Apr-26 @ 14:00 - Apr-26 @ 18:00
Wind Visibility
310° at 7 knots Greater than 6 miles
Clouds
  • Clear skies
From Apr-26 @ 18:00 - Apr-27 @ 00:00
Wind Visibility
310° at 6 knots Greater than 6 miles
Clouds
  • Scattered at 4,000' AGL
From Apr-27 @ 00:00 - Apr-27 @ 03:00
Wind Visibility
340° at 4 knots Greater than 6 miles
Clouds
  • Scattered at 4,500' AGL
  • Scattered at 15,000' AGL
  • Scattered at 25,000' AGL
From Apr-27 @ 03:00 - Apr-27 @ 12:00
Clouds
  • Broken at 25,000' AGL